Latest Coastal Weather Observations for Hamilton Island

IDQ60701

Issued at 5:52 pm EST Wednesday 10 August 2022 (issued every 10 minutes, with the page automatically refreshed every 10 minutes)

About coastal observations | Map of coastal stations | Coastal observations for QLD | Marine services | Other Formats
Station Details ID: 033106 Name: HAMILTON ISLAND AIRPORT Lat: -20.37 Lon: 148.95 Height: 58.66 m
Data from the previous 72 hours. | See also: Recent months at Hamilton Island
Date/Time
EST
Wind Sea
Height
m
Swell Vis
km
Cloud Weather Temp
°C
Press
MSL
hPa
Rain since
9am
mm
Dir  Spd
kts
Gust
kts
Height
m
Period
s
Dir
10/05:30pm SE 21 26 - - - - 10 Cloudy - 19.7 1019.3 0.0
10/05:00pm ESE 23 25 - - - - 10 Cloudy - 19.7 1019.0 0.0
10/04:30pm SE 22 28 - - - - 10 Partly cloudy - 19.7 1019.1 0.0
10/04:00pm SE 21 25 - - - - 10 Partly cloudy - 19.8 1019.0 0.0
10/03:30pm SE 20 24 - - - - 10 Partly cloudy - 20.0 1019.0 0.0
10/03:00pm SE 21 23 - - - - 10 Cloudy - 20.0 1019.2 0.0
10/02:30pm SE 20 24 - - - - 10 Partly cloudy - 20.2 1019.4 0.0
10/02:00pm SE 20 23 - - - - 10 Partly cloudy - 20.2 1019.5 0.0
10/01:30pm SE 20 23 - - - - 10 Partly cloudy - 20.5 1019.9 0.0
10/01:00pm SSE 20 23 - - - - 10 Partly cloudy - 19.5 1020.1 0.0
10/12:30pm SSE 19 23 - - - - 10 Partly cloudy - 19.9 1020.4 0.0
10/12:00pm SSE 20 23 - - - - 10 Mostly clear - 19.7 1020.7 0.0
10/11:30am SSE 21 24 - - - - 10 - - 19.4 1021.0 0.0
10/11:00am SSE 21 25 - - - - 10 - - 19.3 1021.1 0.0
10/10:30am SSE 19 23 - - - - 10 - - 19.3 1021.3 0.0
10/10:00am SSE 21 24 - - - - 10 - - 19.0 1021.5 0.0
10/09:30am SSE 20 24 - - - - 10 - - 19.2 1021.3 0.0
10/09:00am SSE 20 23 - - - - 10 - - 19.0 1021.4 0.0
10/08:30am SE 19 22 - - - - 10 - - 19.2 1021.2 0.0
10/08:00am SE 18 21 - - - - 10 - - 18.9 1021.1 0.0
10/07:30am SSE 19 22 - - - - 10 - - 18.6 1020.9 0.0
10/07:00am SE 18 23 - - - - 10 - - 18.3 1020.5 0.0
10/06:30am SSE 19 22 - - - - 10 - - 17.9 1020.1 0.0
10/06:00am SE 18 22 - - - - 10 - - 18.1 1019.7 0.0
10/05:30am SE 17 20 - - - - 10 - - 18.1 1019.4 0.0
10/05:00am SE 17 21 - - - - 10 - - 18.1 1019.0 0.0
10/04:30am SE 19 23 - - - - 10 Partly cloudy - 18.3 1018.6 0.0
10/04:00am SE 18 21 - - - - 10 Partly cloudy - 18.6 1018.4 0.0
10/03:30am SE 16 20 - - - - 10 Partly cloudy - 18.5 1018.7 0.0
10/03:00am ESE 16 19 - - - - 10 Mostly clear - 18.6 1018.8 0.0
10/02:30am SE 17 20 - - - - 10 Partly cloudy - 18.6 1019.0 0.0
10/02:00am ESE 17 20 - - - - 10 Partly cloudy - 18.7 1019.1 0.0
10/01:30am ESE 16 19 - - - - 10 - - 18.8 1019.4 0.0
10/01:00am ESE 18 21 - - - - 10 - - 18.9 1019.4 0.0
10/12:30am ESE 19 22 - - - - 10 - - 18.9 1019.6 0.0
10/12:00am ESE 18 22 - - - - 10 - - 18.9 1019.7 0.0
 
Date/Time
EST
Wind Sea
Height
m
Swell Vis
km
Cloud Weather Temp
°C
Press
MSL
hPa
Rain since
9am
mm
Dir  Spd
kts
Gust
kts
Height
m
Period
s
Dir
09/11:30pm ESE 17 21 - - - - 10 - - 19.0 1019.9 0.0
09/11:00pm ESE 19 22 - - - - 10 - - 19.0 1019.9 0.0
09/10:30pm ESE 18 21 - - - - 10 - - 18.9 1019.9 0.0
09/10:00pm ESE 19 22 - - - - 10 - - 19.0 1019.8 0.0
09/09:30pm ESE 17 20 - - - - 10 - - 18.8 1019.8 0.0
09/09:00pm ESE 16 19 - - - - 10 - - 18.8 1019.9 0.0
09/08:30pm ESE 17 21 - - - - 10 - - 18.8 1019.8 0.0
09/08:00pm ESE 17 22 - - - - 10 - - 18.7 1019.4 0.0
09/07:30pm ESE 16 20 - - - - 10 - - 18.6 1019.1 0.0
09/07:00pm ESE 17 21 - - - - 10 - - 18.6 1018.7 0.0
09/06:30pm ESE 17 21 - - - - 10 - - 18.6 1018.2 0.0
09/06:00pm ESE 18 21 - - - - 10 - - 18.6 1017.8 0.0
09/05:30pm ESE 17 21 - - - - 10 - - 18.6 1017.2 0.0
09/05:00pm ESE 19 22 - - - - 10 - - 18.8 1017.0 0.0
09/04:30pm ESE 17 21 - - - - 10 - - 18.9 1016.8 0.0
09/04:00pm SE 16 20 - - - - 10 - - 19.2 1016.7 0.0
09/03:30pm SE 19 22 - - - - 10 - - 19.2 1016.5 0.0
09/03:00pm SE 18 22 - - - - 10 - - 19.5 1016.7 0.0
09/02:30pm SE 18 22 - - - - 10 - - 19.7 1017.0 0.0
09/02:00pm SE 20 24 - - - - 10 - - 19.8 1017.2 0.0
09/01:30pm SE 21 24 - - - - 10 Partly cloudy - 19.8 1017.5 0.0
09/01:00pm SE 22 25 - - - - 10 - - 19.8 1017.8 0.0
09/12:30pm SSE 20 24 - - - - 10 Partly cloudy - 19.7 1018.1 0.0
09/12:00pm SSE 20 23 - - - - 10 Mostly clear - 19.6 1018.7 0.0
09/11:30am SSE 19 25 - - - - 10 - - 19.9 1019.2 0.0
09/11:00am SSE 18 23 - - - - 10 - - 19.6 1019.6 0.0
09/10:30am SSE 19 23 - - - - 10 - - 19.3 1019.8 0.0
09/10:00am SSE 19 23 - - - - 10 - - 19.1 1019.9 0.0
09/09:30am SSE 18 21 - - - - 10 - - 19.1 1019.8 0.0
09/09:00am SSE 19 23 - - - - 10 - - 19.0 1019.6 0.0
09/08:30am SSE 19 23 - - - - 10 - - 18.7 1019.5 0.0
09/08:00am SSE 19 22 - - - - 10 - - 18.6 1019.4 0.0
09/07:30am SE 19 24 - - - - 10 - - 18.4 1019.3 0.0
09/07:00am SE 18 21 - - - - 10 - - 18.1 1019.0 0.0
09/06:30am SE 16 21 - - - - 10 - - 17.6 1018.7 0.0
09/06:00am SE 15 18 - - - - 10 - - 17.5 1018.6 0.0
09/05:30am SE 16 20 - - - - 10 - - 17.6 1018.5 0.0
09/05:00am SE 16 20 - - - - 10 - - 17.8 1018.2 0.0
09/04:30am SE 17 21 - - - - 10 Partly cloudy - 17.9 1017.8 0.0
09/04:00am SE 17 21 - - - - 10 - - 18.1 1017.8 0.0
09/03:30am SE 15 19 - - - - 10 - - 18.2 1017.8 0.0
09/03:00am SE 19 21 - - - - 10 - - 18.4 1018.0 0.0
09/02:30am SE 19 22 - - - - 10 - - 18.4 1018.0 0.0
09/02:00am SE 19 22 - - - - 10 - - 18.5 1018.2 0.0
09/01:30am SE 19 23 - - - - 10 - - 18.7 1018.6 0.0
09/01:00am SE 20 23 - - - - 10 - - 18.7 1018.8 0.0
09/12:30am SE 21 24 - - - - 10 - - 18.9 1018.9 0.0
09/12:00am SE 20 25 - - - - 10 - - 18.9 1018.8 0.0
 
Date/Time
EST
Wind Sea
Height
m
Swell Vis
km
Cloud Weather Temp
°C
Press
MSL
hPa
Rain since
9am
mm
Dir  Spd
kts
Gust
kts
Height
m
Period
s
Dir
08/11:30pm SE 18 22 - - - - 10 - - 19.0 1018.9 0.0
08/11:00pm SE 16 20 - - - - 10 - - 19.1 1018.9 0.0
08/10:30pm SE 16 19 - - - - 10 - - 19.1 1018.9 0.0
08/10:00pm SE 17 19 - - - - 10 - - 19.3 1018.9 0.0
08/09:30pm SE 16 19 - - - - 10 - - 19.1 1018.8 0.0
08/09:00pm SE 16 19 - - - - 10 - - 19.2 1018.7 0.0
08/08:30pm SE 17 21 - - - - 10 - - 19.3 1018.5 0.0
08/08:00pm SE 18 21 - - - - 10 - - 19.3 1018.2 0.0
08/07:30pm ESE 17 20 - - - - 10 - - 19.3 1018.0 0.0
08/07:00pm ESE 17 20 - - - - 10 - - 19.5 1017.6 0.0
08/06:30pm ESE 17 21 - - - - 10 - - 19.3 1017.1 0.0
08/06:00pm ESE 18 22 - - - - 10 - - 19.4 1017.0 0.0
08/05:30pm ESE 16 20 - - - - 10 - - 19.3 1016.6 0.0
08/05:00pm ESE 16 20 - - - - 10 - - 19.5 1016.4 0.0
08/04:30pm ESE 17 21 - - - - 10 - - 19.6 1016.0 0.0
08/04:00pm ESE 18 21 - - - - 10 - - 19.7 1015.9 0.0
08/03:30pm ESE 18 21 - - - - 10 - - 19.9 1015.8 0.0
08/03:00pm ESE 17 21 - - - - 10 - - 20.1 1015.7 0.0
08/02:30pm SE 16 18 - - - - 10 - - 20.3 1015.9 0.0
08/02:00pm SE 17 19 - - - - 10 - - 20.6 1016.4 0.0
08/01:30pm SE 17 21 - - - - 10 - - 20.7 1016.8 0.0
08/01:00pm SE 20 23 - - - - 10 - - 20.0 1017.1 0.0
08/12:30pm SSE 20 23 - - - - 10 - - 20.3 1017.5 0.0
08/12:00pm SSE 21 23 - - - - 10 - - 20.3 1017.6 0.0
08/11:30am SSE 22 25 - - - - 10 - - 20.0 1018.0 0.0
08/11:00am SSE 19 23 - - - - 10 Partly cloudy - 20.2 1018.5 0.0
08/10:30am SSE 18 20 - - - - 10 Partly cloudy - 20.2 1018.9 0.0
08/10:00am SSE 17 20 - - - - 10 - - 20.4 1019.1 0.0
08/09:30am SSE 18 20 - - - - 10 Partly cloudy - 20.2 1019.1 0.0
08/09:00am SE 16 20 - - - - 10 Mostly clear - 20.2 1018.9 0.0
08/08:30am SSE 17 20 - - - - 10 Partly cloudy - 19.9 1018.6 0.0
08/08:00am SSE 16 19 - - - - 10 - - 19.8 1018.2 0.0
08/07:30am SSE 15 19 - - - - 10 - - 19.5 1018.0 0.0
08/07:00am SSE 15 16 - - - - 10 - - 19.0 1017.7 0.0
08/06:30am SE 15 17 - - - - 10 Partly cloudy - 19.1 1017.5 0.0
08/06:00am SE 14 16 - - - - 10 Mostly clear - 19.0 1017.2 0.0
08/05:30am SSE 15 17 - - - - 10 Partly cloudy - 19.0 1016.6 0.0
08/05:00am SE 16 18 - - - - 10 Partly cloudy - 19.1 1016.2 0.0
08/04:30am SSE 16 19 - - - - 10 Partly cloudy - 19.2 1016.0 0.0
08/04:01am SSE 17 19 - - - - 10 Partly cloudy - 19.2 1015.9 0.0
08/04:00am SSE 17 19 - - - - 10 Partly cloudy - 19.2 1015.9 0.0
08/03:30am SSE 15 19 - - - - 10 Partly cloudy - 19.2 1016.0 0.0
08/03:18am SSE 15 18 - - - - 10 Partly cloudy - 19.2 1015.9 0.0
08/03:00am SSE 15 18 - - - - 10 Mostly cloudy - 19.4 1015.9 0.0
08/02:30am SE 17 19 - - - - 10 Partly cloudy - 19.9 1016.0 0.0
08/02:00am SE 17 19 - - - - 10 Cloudy - 19.9 1016.2 0.0
08/01:30am SE 17 19 - - - - 10 Cloudy - 20.0 1016.2 0.0
08/01:00am SE 17 18 - - - - 10 Partly cloudy - 20.2 1016.5 0.0
08/12:30am SE 14 16 - - - - 10 Partly cloudy - 20.2 1016.8 0.0
08/12:00am SE 13 14 - - - - 10 Cloudy - 20.3 1016.9 0.0
 
Date/Time
EST
Wind Sea
Height
m
Swell Vis
km
Cloud Weather Temp
°C
Press
MSL
hPa
Rain since
9am
mm
Dir  Spd
kts
Gust
kts
Height
m
Period
s
Dir
07/11:30pm SE 13 16 - - - - 10 Partly cloudy - 20.5 1017.0 0.0
07/11:00pm SE 12 14 - - - - 10 Cloudy - 20.6 1017.2 0.0
07/10:30pm ESE 13 14 - - - - 10 Partly cloudy - 20.6 1017.1 0.0
07/10:10pm ESE 13 15 - - - - 10 Partly cloudy - 20.6 1017.0 0.0
07/10:00pm ESE 13 14 - - - - 10 Partly cloudy - 20.6 1017.0 0.0
07/09:30pm ESE 11 14 - - - - 10 Partly cloudy - 20.8 1017.1 0.0
07/09:00pm ESE 13 15 - - - - 10 Cloudy - 20.8 1016.9 0.0
07/08:30pm ESE 12 15 - - - - 10 Cloudy - 20.8 1016.6 0.0
07/08:00pm SE 11 12 - - - - 10 Partly cloudy - 20.8 1016.5 0.0
07/07:30pm SE 12 14 - - - - 10 Partly cloudy - 20.8 1016.0 0.0
07/07:00pm SE 13 14 - - - - 10 Cloudy - 20.7 1015.7 0.0
07/06:44pm SE 14 15 - - - - 10 Partly cloudy - 20.7 1015.5 0.0
07/06:30pm SE 13 15 - - - - 10 Partly cloudy - 20.8 1015.3 0.0
07/06:00pm SE 9 11 - - - - 10 Mostly cloudy - 20.8 1015.0 0.0

Other formats

Comma delimited format used in spreadsheet applications
http://www.bom.gov.au/fwo/IDQ60701/IDQ60701.94368.axf

JavaScript Object Notation format (JSON) in row-major order
http://www.bom.gov.au/fwo/IDQ60701/IDQ60701.94368.json

Data quality

Most of these data are generated automatically and are frequently updated. Quality checks on data are not normally performed. It is possible for incorrect values to appear. Refer to information at About Latest Weather Observations and please check the disclaimer before using these data.